Time;durP1;ratioP1;P1;durP2;ratioP2;P2;SDS_P1;SDS_P2;PMS_P1;PMS_P2;Temp;Humidity;BMP_temperature;BMP_pressure;BME280_temperature;BME280_humidity;BME280_pressure;Samples;Min_cycle;Max_cycle;Signal;HPM_P1;HPM_P2
2023/06/28 00:00:00;;;;;;;6.60;2.60;;;;;;;18.74;60.71;96810.66;4994095;28;20030;-69
2023/06/28 00:02:26;;;;;;;6.03;2.72;;;;;;;18.77;61.66;96812.63;4987687;28;20053;-67
2023/06/28 00:04:52;;;;;;;4.53;2.40;;;;;;;18.86;60.07;96807.34;4981955;28;20133;-68
2023/06/28 00:07:18;;;;;;;9.48;2.88;;;;;;;18.95;59.49;96806.84;4996187;28;20042;-63
2023/06/28 00:09:43;;;;;;;5.50;2.92;;;;;;;19.03;58.81;96804.72;4992574;28;20034;-66
2023/06/28 00:12:08;;;;;;;5.50;2.28;;;;;;;18.99;58.83;96799.22;4980202;28;20083;-67
2023/06/28 00:14:34;;;;;;;5.13;2.42;;;;;;;18.98;58.42;96802.41;4986054;28;20046;-66
2023/06/28 00:16:59;;;;;;;7.05;2.47;;;;;;;18.97;58.70;96812.75;4983254;28;20069;-67
2023/06/28 00:19:28;;;;;;;6.47;2.35;;;;;;;19.02;58.31;96805.94;4978098;28;20038;-67
2023/06/28 00:21:55;;;;;;;10.05;2.80;;;;;;;18.98;58.35;96813.53;4983207;28;20057;-67
2023/06/28 00:24:20;;;;;;;4.25;2.50;;;;;;;18.97;58.27;96814.75;4977501;28;20042;-67
2023/06/28 00:26:46;;;;;;;7.20;2.70;;;;;;;18.95;58.43;96814.38;4982314;28;20035;-67
2023/06/28 00:29:11;;;;;;;9.77;2.88;;;;;;;18.97;58.60;96818.28;4977818;28;20121;-67
2023/06/28 00:31:36;;;;;;;9.55;2.80;;;;;;;18.93;58.74;96811.25;4965620;28;20038;-68
2023/06/28 00:34:02;;;;;;;7.22;2.72;;;;;;;18.94;58.86;96808.03;4963100;28;20049;-65
2023/06/28 00:36:27;;;;;;;3.90;2.30;;;;;;;18.96;58.99;96810.38;4980054;28;20058;-67
2023/06/28 00:38:53;;;;;;;5.35;2.55;;;;;;;18.98;59.06;96802.41;4982697;28;20069;-67
2023/06/28 00:41:18;;;;;;;7.03;2.97;;;;;;;18.96;59.24;96799.28;4977438;28;20081;-68
2023/06/28 00:43:43;;;;;;;6.00;2.85;;;;;;;18.99;59.18;96790.13;4982440;28;20049;-68
2023/06/28 00:46:09;;;;;;;8.02;3.75;;;;;;;18.99;59.10;96795.69;4977814;28;20069;-68
2023/06/28 00:48:34;;;;;;;4.55;2.67;;;;;;;18.98;58.82;96794.91;4981915;28;20058;-68
2023/06/28 00:51:02;;;;;;;7.45;2.35;;;;;;;18.93;58.69;96798.16;4963394;28;20058;-68
2023/06/28 00:53:27;;;;;;;7.53;2.40;;;;;;;18.90;59.15;96801.75;4960061;28;20138;-67
2023/06/28 00:55:55;;;;;;;4.72;2.33;;;;;;;18.89;59.43;96800.19;4946031;28;20560;-67
2023/06/28 00:58:21;;;;;;;8.07;2.85;;;;;;;18.86;59.42;96803.81;4960967;28;20042;-66
2023/06/28 01:00:46;;;;;;;7.05;2.33;;;;;;;18.66;60.40;96800.91;4997879;28;20057;-67
2023/06/28 01:03:12;;;;;;;6.57;2.70;;;;;;;18.78;60.06;96805.88;4998545;28;20092;-66
2023/06/28 01:05:38;;;;;;;4.90;2.92;;;;;;;18.80;60.04;96810.97;5000522;28;20038;-66
2023/06/28 01:08:04;;;;;;;6.80;2.35;;;;;;;18.76;61.86;96818.56;4998156;28;20044;-65
2023/06/28 01:10:31;;;;;;;5.25;2.63;;;;;;;18.80;62.25;96813.75;4984533;28;20392;-67
2023/06/28 01:12:57;;;;;;;4.38;2.70;;;;;;;18.90;60.53;96815.63;4982932;28;20085;-68
2023/06/28 01:15:23;;;;;;;6.07;2.50;;;;;;;18.83;60.38;96822.06;4975534;28;20697;-67
2023/06/28 01:17:50;;;;;;;7.38;2.70;;;;;;;18.86;60.19;96815.69;4982078;28;20045;-66
2023/06/28 01:20:16;;;;;;;7.20;2.72;;;;;;;18.78;60.27;96825.28;4977604;28;20042;-66
2023/06/28 01:22:43;;;;;;;4.18;2.22;;;;;;;18.77;60.36;96826.50;4982634;28;20053;-66
2023/06/28 01:25:10;;;;;;;6.78;2.58;;;;;;;18.75;60.56;96817.03;4976844;28;20039;-66
2023/06/28 01:27:40;;;;;;;9.98;2.97;;;;;;;18.60;61.02;96817.22;4989376;28;20046;-66
2023/06/28 01:30:06;;;;;;;8.95;2.28;;;;;;;18.64;61.24;96814.41;4980002;28;20039;-66
2023/06/28 01:32:31;;;;;;;7.78;2.97;;;;;;;18.65;60.85;96813.19;4985210;28;20043;-66
2023/06/28 01:34:57;;;;;;;6.15;2.67;;;;;;;18.62;61.51;96825.09;4987381;28;20081;-65
2023/06/28 01:37:22;;;;;;;5.53;2.38;;;;;;;18.68;61.76;96818.69;4981086;28;20744;-68
2023/06/28 01:39:49;;;;;;;4.45;2.40;;;;;;;18.68;61.42;96810.34;4985698;28;20440;-68
2023/06/28 01:42:16;;;;;;;5.55;2.40;;;;;;;18.75;60.86;96808.69;4983105;28;20057;-70
2023/06/28 01:44:41;;;;;;;8.35;2.42;;;;;;;18.75;60.49;96812.25;4986789;28;20038;-67
2023/06/28 01:47:07;;;;;;;3.80;2.22;;;;;;;18.74;60.93;96807.88;4981488;28;20050;-68
2023/06/28 01:49:33;;;;;;;5.85;2.53;;;;;;;18.71;60.76;96809.53;4987064;28;20129;-66
2023/06/28 01:51:58;;;;;;;7.55;2.55;;;;;;;18.70;60.30;96813.50;4985858;28;20034;-66
2023/06/28 01:54:26;;;;;;;6.75;2.40;;;;;;;18.77;59.56;96809.84;4981232;28;20669;-66
2023/06/28 01:56:51;;;;;;;9.73;2.45;;;;;;;18.74;59.62;96810.66;4986165;28;20133;-65
2023/06/28 01:59:17;;;;;;;5.72;2.60;;;;;;;18.74;59.68;96816.22;4987084;28;20138;-67
2023/06/28 02:01:44;;;;;;;6.05;2.58;;;;;;;18.71;59.51;96817.84;4997084;28;20073;-67
2023/06/28 02:04:09;;;;;;;9.02;3.08;;;;;;;18.70;59.64;96812.72;5000525;28;20125;-68
2023/06/28 02:06:38;;;;;;;5.75;2.42;;;;;;;18.59;59.76;96815.63;5005509;28;20405;-66
2023/06/28 02:09:04;;;;;;;6.60;2.20;;;;;;;18.57;60.07;96814.50;4994608;28;20410;-64
2023/06/28 02:11:29;;;;;;;6.03;2.70;;;;;;;18.45;60.20;96802.72;4985839;28;20138;-67
2023/06/28 02:13:55;;;;;;;6.70;2.47;;;;;;;18.46;60.92;96807.09;4984390;28;20079;-66
2023/06/28 02:16:22;;;;;;;6.47;2.75;;;;;;;18.40;60.80;96802.41;4985614;28;20053;-66
2023/06/28 02:18:49;;;;;;;6.60;2.58;;;;;;;18.34;61.46;96804.88;4993444;28;20093;-67
2023/06/28 02:21:16;;;;;;;7.47;2.58;;;;;;;18.38;62.13;96807.59;4990764;28;20051;-67
2023/06/28 02:23:41;;;;;;;5.90;2.80;;;;;;;18.44;62.74;96817.81;4989655;28;20038;-67
2023/06/28 02:26:07;;;;;;;7.47;2.70;;;;;;;18.48;62.44;96812.22;4980323;28;20096;-67
2023/06/28 02:28:32;;;;;;;4.75;2.53;;;;;;;18.54;62.63;96802.22;4984646;28;20122;-67
2023/06/28 02:30:57;;;;;;;5.43;2.53;;;;;;;18.56;62.15;96810.91;4984949;28;20050;-67
2023/06/28 02:33:23;;;;;;;4.55;2.47;;;;;;;18.50;61.65;96810.59;4979349;28;20943;-66
2023/06/28 02:35:48;;;;;;;4.60;2.35;;;;;;;18.41;62.78;96806.78;4984920;28;20520;-68
2023/06/28 02:38:13;;;;;;;5.03;2.80;;;;;;;18.34;63.41;96802.09;4980149;28;20057;-66
2023/06/28 02:40:39;;;;;;;4.82;2.47;;;;;;;18.41;63.60;96810.31;4984339;28;20070;-66
2023/06/28 02:43:05;;;;;;;3.60;2.10;;;;;;;18.38;64.04;96805.59;4978158;28;20050;-66
2023/06/28 02:45:30;;;;;;;9.32;2.80;;;;;;;18.08;66.38;96800.84;4984991;28;20050;-68
2023/06/28 02:47:56;;;;;;;5.13;2.63;;;;;;;17.64;69.42;96800.47;4985302;28;20050;-68
2023/06/28 02:50:24;;;;;;;6.18;3.25;;;;;;;17.55;71.34;96806.47;4980469;28;20062;-67
2023/06/28 02:52:49;;;;;;;5.38;2.70;;;;;;;17.54;71.88;96809.69;4984411;28;20052;-69
2023/06/28 02:55:14;;;;;;;6.88;2.72;;;;;;;17.68;72.25;96808.75;4979825;28;20163;-69
2023/06/28 02:57:40;;;;;;;6.30;2.72;;;;;;;17.75;71.84;96803.13;4967315;28;20050;-68
2023/06/28 03:00:06;;;;;;;9.13;2.90;;;;;;;17.81;71.48;96798.72;4983594;28;20042;-69
2023/06/28 03:02:33;;;;;;;4.88;2.58;;;;;;;17.86;71.30;96803.06;5000665;28;20042;-68
2023/06/28 03:04:58;;;;;;;4.07;2.47;;;;;;;17.91;70.87;96792.28;5004072;28;20038;-68
2023/06/28 03:07:24;;;;;;;6.13;2.05;;;;;;;17.99;71.02;96787.47;4999236;28;20736;-68
2023/06/28 03:09:49;;;;;;;4.40;2.80;;;;;;;18.12;70.03;96787.72;5005855;28;20149;-68
2023/06/28 03:12:14;;;;;;;6.10;2.80;;;;;;;18.17;69.97;96790.03;5000181;28;20065;-68
2023/06/28 03:14:40;;;;;;;7.72;2.80;;;;;;;18.17;69.22;96786.47;5004321;28;20038;-66
2023/06/28 03:17:05;;;;;;;3.60;2.53;;;;;;;18.18;68.98;96788.03;4999161;28;20057;-67
2023/06/28 03:19:30;;;;;;;6.00;2.92;;;;;;;18.22;68.68;96784.03;5004912;28;20550;-68
2023/06/28 03:21:56;;;;;;;7.65;2.92;;;;;;;18.25;67.89;96785.19;5003710;28;20165;-67
2023/06/28 03:24:21;;;;;;;5.72;2.90;;;;;;;18.19;68.89;96779.31;5000199;28;21023;-67
2023/06/28 03:26:47;;;;;;;8.65;2.63;;;;;;;18.24;69.19;96773.31;5007663;28;20487;-67
2023/06/28 03:29:12;;;;;;;4.22;2.60;;;;;;;18.28;70.24;96779.59;5002676;28;20057;-68
2023/06/28 03:31:37;;;;;;;5.10;2.50;;;;;;;18.21;71.31;96776.91;5004191;28;20124;-68
2023/06/28 03:34:03;;;;;;;4.47;2.72;;;;;;;18.10;72.13;96770.72;5000727;28;20537;-64
2023/06/28 03:36:29;;;;;;;6.88;2.80;;;;;;;18.02;73.38;96770.00;5001822;28;20045;-68
2023/06/28 03:38:55;;;;;;;6.38;2.80;;;;;;;18.05;73.16;96766.41;5002727;28;20053;-66
2023/06/28 03:41:20;;;;;;;4.68;2.72;;;;;;;18.13;72.75;96772.66;4999875;28;20046;-67
2023/06/28 03:43:46;;;;;;;4.20;2.90;;;;;;;18.18;71.47;96768.66;4982451;28;20055;-66
2023/06/28 03:46:11;;;;;;;7.82;2.38;;;;;;;18.13;71.50;96772.66;4978515;28;20034;-67
2023/06/28 03:48:37;;;;;;;7.63;2.75;;;;;;;18.11;71.42;96778.63;4983586;28;20057;-65
2023/06/28 03:51:03;;;;;;;7.53;2.60;;;;;;;18.17;71.25;96778.16;4981701;28;20039;-63
2023/06/28 03:53:28;;;;;;;7.05;2.85;;;;;;;18.17;72.65;96781.72;4980852;28;20058;-66
2023/06/28 03:55:53;;;;;;;5.78;2.97;;;;;;;18.05;73.54;96765.63;4966249;28;20046;-65
2023/06/28 03:58:19;;;;;;;7.97;3.05;;;;;;;18.07;74.27;96772.31;4961453;28;20385;-66
2023/06/28 04:00:44;;;;;;;5.70;2.90;;;;;;;18.00;74.79;96768.88;4992073;28;20050;-66
2023/06/28 04:03:10;;;;;;;8.95;3.03;;;;;;;17.96;75.42;96769.69;4998256;28;20100;-67
2023/06/28 04:05:35;;;;;;;6.97;2.92;;;;;;;18.00;75.90;96777.19;5008116;28;20038;-68
2023/06/28 04:08:02;;;;;;;5.70;3.00;;;;;;;17.98;76.62;96769.28;5007700;28;20038;-68
2023/06/28 04:10:27;;;;;;;4.75;3.08;;;;;;;17.99;77.51;96765.31;4988942;28;20129;-68
2023/06/28 04:12:55;;;;;;;3.88;2.78;;;;;;;18.00;77.51;96772.41;4969536;28;20153;-67
2023/06/28 04:15:20;;;;;;;6.72;2.92;;;;;;;18.05;78.17;96765.63;4978544;28;20133;-67
2023/06/28 04:17:46;;;;;;;6.68;3.17;;;;;;;18.07;78.75;96761.25;4982775;28;20050;-68
2023/06/28 04:20:12;;;;;;;6.93;3.13;;;;;;;18.07;79.66;96766.78;4978055;28;20702;-67
2023/06/28 04:22:37;;;;;;;8.52;3.40;;;;;;;18.07;80.38;96764.00;4983491;28;20039;-68
2023/06/28 04:25:03;;;;;;;8.32;3.35;;;;;;;18.08;80.42;96770.34;4980266;28;20043;-65
2023/06/28 04:27:29;;;;;;;10.10;3.22;;;;;;;18.13;80.18;96765.13;4981125;28;20070;-67
2023/06/28 04:29:54;;;;;;;6.82;2.97;;;;;;;18.13;80.92;96775.41;4982581;28;20050;-67
2023/06/28 04:32:26;;;;;;;5.47;3.30;;;;;;;18.16;80.67;96777.38;4977337;28;20042;-68
2023/06/28 04:34:53;;;;;;;11.35;3.22;;;;;;;18.12;80.46;96766.31;4981990;28;20582;-67
2023/06/28 04:37:20;;;;;;;6.35;2.88;;;;;;;18.13;79.76;96769.88;4984942;28;20053;-68
2023/06/28 04:39:45;;;;;;;4.57;3.17;;;;;;;18.10;78.52;96763.19;4985048;28;20502;-68
2023/06/28 04:42:15;;;;;;;4.00;2.63;;;;;;;18.03;80.34;96766.03;4978923;28;20093;-68
2023/06/28 04:44:46;;;;;;;7.78;3.50;;;;;;;18.03;78.36;96774.34;4982608;28;20062;-66
2023/06/28 04:47:15;;;;;;;7.50;2.95;;;;;;;18.07;76.59;96766.78;4977432;28;20476;-68
2023/06/28 04:49:49;;;;;;;6.20;2.85;;;;;;;18.09;75.13;96767.16;4982588;28;20514;-68
2023/06/28 04:52:18;;;;;;;5.65;2.80;;;;;;;17.86;74.36;96772.56;4979843;28;20447;-66
2023/06/28 04:54:44;;;;;;;5.15;2.78;;;;;;;17.45;75.39;96765.06;4982580;28;20048;-68
2023/06/28 04:57:10;;;;;;;7.45;2.50;;;;;;;17.08;73.90;96772.13;4977444;28;20038;-67
2023/06/28 04:59:36;;;;;;;5.88;2.35;;;;;;;17.06;71.21;96772.53;4988216;28;20050;-67
2023/06/28 05:02:05;;;;;;;5.93;2.45;;;;;;;17.09;68.63;96773.69;4994613;28;20069;-68
2023/06/28 05:04:32;;;;;;;8.35;2.28;;;;;;;17.13;68.62;96766.94;5001721;28;20038;-68
2023/06/28 05:07:03;;;;;;;7.20;2.42;;;;;;;17.00;65.80;96763.09;5004085;28;20050;-67
2023/06/28 05:09:29;;;;;;;7.60;2.63;;;;;;;16.96;67.59;96776.16;4981781;28;20065;-68
2023/06/28 05:11:58;;;;;;;6.85;2.92;;;;;;;17.04;67.09;96765.84;4964328;28;20558;-67
2023/06/28 05:14:24;;;;;;;6.50;3.10;;;;;;;17.10;67.10;96772.50;4979893;28;20047;-68
2023/06/28 05:16:52;;;;;;;9.52;3.28;;;;;;;16.82;69.24;96766.75;4952872;28;20077;-69
2023/06/28 05:19:18;;;;;;;8.55;2.75;;;;;;;16.62;71.59;96766.50;4979163;28;20571;-70
2023/06/28 05:21:43;;;;;;;7.85;3.35;;;;;;;16.58;72.37;96768.50;4982570;28;20089;-70
2023/06/28 05:24:08;;;;;;;7.00;2.65;;;;;;;16.60;73.58;96766.13;4977666;28;20034;-74
2023/06/28 05:26:36;;;;;;;6.05;2.92;;;;;;;16.59;73.54;96772.03;4982364;28;20085;-72
2023/06/28 05:29:02;;;;;;;9.05;3.20;;;;;;;16.53;74.65;96770.88;4981849;28;20046;-68
2023/06/28 05:31:27;;;;;;;8.10;3.05;;;;;;;16.31;75.71;96773.75;4979484;28;20138;-72
2023/06/28 05:33:52;;;;;;;8.25;3.88;;;;;;;16.11;76.92;96776.22;4964640;28;20073;-70
2023/06/28 05:36:22;;;;;;;9.00;3.90;;;;;;;16.10;77.87;96769.16;4977991;28;20057;-71
2023/06/28 05:38:47;;;;;;;9.48;3.83;;;;;;;16.14;78.04;96769.13;4982441;28;20073;-69
2023/06/28 05:41:15;;;;;;;9.27;3.33;;;;;;;16.12;78.91;96766.75;4977775;28;20496;-70
2023/06/28 05:43:45;;;;;;;13.05;3.70;;;;;;;16.10;78.59;96765.56;4980629;28;20553;-72
2023/06/28 05:46:11;;;;;;;8.85;3.47;;;;;;;16.07;78.73;96775.47;4979302;28;20094;-72
2023/06/28 05:48:36;;;;;;;10.23;3.63;;;;;;;16.08;79.61;96774.28;4965926;28;20400;-72
2023/06/28 05:51:02;;;;;;;8.25;3.63;;;;;;;16.12;79.75;96769.53;4985109;28;20042;-67
2023/06/28 05:53:29;;;;;;;9.02;4.07;;;;;;;16.04;80.55;96784.53;4980002;28;20046;-70
2023/06/28 05:55:55;;;;;;;8.50;3.80;;;;;;;15.99;80.91;96785.75;4983341;28;20145;-70
2023/06/28 05:58:21;;;;;;;7.57;4.07;;;;;;;15.97;81.47;96788.13;4977498;28;20153;-71
2023/06/28 06:00:46;;;;;;;9.07;3.83;;;;;;;16.04;81.65;96782.59;4993334;28;20133;-69
2023/06/28 06:03:12;;;;;;;9.50;3.85;;;;;;;16.03;82.46;96785.75;4996584;28;20483;-70
2023/06/28 06:05:38;;;;;;;8.07;3.63;;;;;;;16.00;82.61;96790.09;4984833;28;20042;-69
2023/06/28 06:08:04;;;;;;;12.68;4.07;;;;;;;16.03;82.51;96792.06;4998024;28;20046;-68
2023/06/28 06:10:30;;;;;;;7.13;3.63;;;;;;;16.10;82.40;96799.53;4988893;28;20042;-71
2023/06/28 06:12:55;;;;;;;8.90;3.97;;;;;;;16.21;81.37;96783.69;4980848;28;20441;-70
2023/06/28 06:15:21;;;;;;;5.85;3.90;;;;;;;16.03;82.51;96800.34;4976440;28;20045;-70
2023/06/28 06:17:46;;;;;;;6.15;3.35;;;;;;;16.05;82.74;96799.94;4966454;28;20038;-69
2023/06/28 06:20:15;;;;;;;7.93;3.63;;;;;;;16.08;83.17;96801.91;4980306;28;20042;-70
2023/06/28 06:22:41;;;;;;;6.80;4.07;;;;;;;16.05;82.63;96808.22;4985333;28;20062;-70
2023/06/28 06:25:07;;;;;;;9.35;3.80;;;;;;;16.05;82.71;96805.47;4979966;28;20138;-68
2023/06/28 06:27:32;;;;;;;9.80;4.00;;;;;;;16.11;83.06;96812.13;4985229;28;20470;-70
2023/06/28 06:29:57;;;;;;;6.68;3.58;;;;;;;16.22;83.24;96810.16;4985400;28;20467;-70
2023/06/28 06:32:23;;;;;;;8.27;3.88;;;;;;;16.18;82.95;96809.34;4980019;28;20491;-70
2023/06/28 06:34:48;;;;;;;9.50;4.63;;;;;;;16.34;83.63;96814.41;4985065;28;20045;-70
2023/06/28 06:37:13;;;;;;;9.10;4.10;;;;;;;16.33;82.36;96823.13;4980168;28;20459;-69
2023/06/28 06:39:40;;;;;;;8.40;4.22;;;;;;;16.39;82.27;96816.00;4984837;28;20070;-69
2023/06/28 06:42:06;;;;;;;7.47;3.60;;;;;;;16.46;82.05;96818.72;4961823;28;20042;-70
2023/06/28 06:44:31;;;;;;;9.73;4.75;;;;;;;16.56;80.98;96815.09;4984009;28;20453;-70
2023/06/28 06:46:57;;;;;;;8.88;3.80;;;;;;;16.53;81.19;96818.69;4984481;28;20077;-70
2023/06/28 06:49:22;;;;;;;7.18;3.30;;;;;;;16.76;80.82;96814.59;4973387;28;20705;-69
2023/06/28 06:51:47;;;;;;;9.63;3.60;;;;;;;16.77;80.75;96814.19;4965955;28;20451;-72
2023/06/28 06:54:13;;;;;;;6.82;3.78;;;;;;;16.74;80.45;96814.22;4960908;28;20101;-69
2023/06/28 06:56:38;;;;;;;11.40;3.53;;;;;;;16.81;80.60;96822.47;4965849;28;20065;-71
2023/06/28 06:59:04;;;;;;;11.35;3.42;;;;;;;17.04;80.42;96821.16;4973000;28;20080;-68
2023/06/28 07:01:32;;;;;;;8.38;3.60;;;;;;;17.08;79.03;96822.69;4996878;28;20046;-69
2023/06/28 07:03:57;;;;;;;8.50;3.20;;;;;;;17.41;78.00;96817.69;4984107;28;20042;-70
2023/06/28 07:06:22;;;;;;;9.25;3.70;;;;;;;17.81;75.67;96820.09;4978807;28;20109;-69
2023/06/28 07:08:48;;;;;;;9.00;4.38;;;;;;;17.56;75.87;96818.38;4984270;28;20145;-70
2023/06/28 07:11:13;;;;;;;7.95;3.55;;;;;;;18.30;72.32;96813.22;4979881;28;20104;-69
2023/06/28 07:13:38;;;;;;;9.15;4.32;;;;;;;17.70;73.40;96809.91;4986951;28;20046;-71
2023/06/28 07:16:04;;;;;;;10.55;3.55;;;;;;;18.20;71.95;96811.38;4980321;28;20050;-65
2023/06/28 07:18:29;;;;;;;7.55;3.25;;;;;;;19.27;66.78;96825.78;4983888;28;20499;-70
2023/06/28 07:20:55;;;;;;;8.10;3.33;;;;;;;18.47;70.08;96825.28;4984181;28;20069;-71
2023/06/28 07:23:20;;;;;;;6.05;3.20;;;;;;;18.47;71.95;96828.06;4979234;28;20038;-70
2023/06/28 07:25:46;;;;;;;7.90;3.70;;;;;;;18.49;72.41;96824.88;4984309;28;20042;-72
2023/06/28 07:28:11;;;;;;;9.10;4.05;;;;;;;18.67;71.55;96822.66;4978344;28;20038;-71
2023/06/28 07:30:58;;;;;;;8.32;3.40;;;;;;;18.31;72.19;96831.44;4986020;28;20048;-71
2023/06/28 07:33:24;;;;;;;9.80;4.07;;;;;;;18.42;72.13;96834.09;4982069;28;20050;-71
2023/06/28 07:35:51;;;;;;;9.95;3.85;;;;;;;18.33;73.00;96831.03;4989858;28;20060;-70
2023/06/28 07:38:18;;;;;;;7.03;3.35;;;;;;;18.05;75.62;96837.69;4982583;28;20108;-71
2023/06/28 07:40:45;;;;;;;4.97;3.38;;;;;;;18.29;72.03;96838.59;4986859;28;20046;-70
2023/06/28 07:43:10;;;;;;;9.45;4.25;;;;;;;18.00;73.26;96840.91;4993924;28;20049;-70
2023/06/28 07:45:36;;;;;;;9.60;4.40;;;;;;;17.94;74.11;96838.59;5003275;28;20037;-70
2023/06/28 07:48:01;;;;;;;8.98;4.95;;;;;;;18.07;70.61;96829.75;4986475;28;20046;-72
2023/06/28 07:50:27;;;;;;;9.55;4.47;;;;;;;18.86;70.89;96832.31;4986144;28;20069;-71
2023/06/28 07:52:52;;;;;;;14.15;3.90;;;;;;;19.21;67.61;96835.78;4988791;28;20058;-71
2023/06/28 07:55:17;;;;;;;9.07;3.67;;;;;;;19.36;65.90;96835.56;4977165;28;20049;-69
2023/06/28 07:57:43;;;;;;;9.77;3.22;;;;;;;20.22;62.46;96850.72;4982805;28;20110;-70
2023/06/28 08:00:10;;;;;;;6.40;2.95;;;;;;;19.91;62.24;96853.69;4982299;28;20042;-70
2023/06/28 08:02:35;;;;;;;12.77;3.40;;;;;;;21.02;59.87;96842.31;4999394;28;20089;-69
2023/06/28 08:05:01;;;;;;;7.38;3.08;;;;;;;21.00;58.11;96847.53;5001743;28;20058;-69
2023/06/28 08:07:26;;;;;;;8.68;4.38;;;;;;;20.36;58.62;96844.88;4996590;28;20053;-69
2023/06/28 08:09:52;;;;;;;7.38;3.03;;;;;;;20.66;59.04;96845.13;5001950;28;20125;-69
2023/06/28 08:12:17;;;;;;;9.63;3.30;;;;;;;20.20;59.66;96842.81;4997435;28;20042;-72
2023/06/28 08:14:43;;;;;;;5.60;2.67;;;;;;;22.03;53.59;96843.44;5002218;28;20041;-71
2023/06/28 08:17:08;;;;;;;8.25;3.33;;;;;;;22.34;52.37;96840.22;4979483;28;20131;-71
2023/06/28 08:19:35;;;;;;;6.53;2.53;;;;;;;22.55;49.87;96846.44;4984800;28;20074;-72
2023/06/28 08:22:03;;;;;;;8.07;2.65;;;;;;;21.90;51.14;96835.00;4982460;28;20388;-72
2023/06/28 08:24:31;;;;;;;8.70;2.60;;;;;;;22.92;47.82;96836.53;4980667;28;20412;-70
2023/06/28 08:26:56;;;;;;;7.63;3.30;;;;;;;21.96;48.96;96835.25;4982829;28;20640;-71
2023/06/28 08:29:22;;;;;;;6.53;2.63;;;;;;;23.02;48.58;96837.44;4976912;28;20234;-71
2023/06/28 08:31:48;;;;;;;8.35;2.83;;;;;;;24.60;44.29;96838.56;4983154;28;20081;-71
2023/06/28 08:34:15;;;;;;;5.55;2.60;;;;;;;23.03;47.57;96839.81;4978108;28;20046;-71
2023/06/28 08:36:41;;;;;;;7.07;2.60;;;;;;;23.12;47.73;96829.97;4983723;28;20081;-70
2023/06/28 08:39:06;;;;;;;6.63;3.28;;;;;;;25.12;43.36;96824.16;4978765;28;20042;-71
2023/06/28 08:41:33;;;;;;;10.43;2.60;;;;;;;24.19;43.51;96828.44;4982348;28;20125;-71
2023/06/28 08:44:01;;;;;;;5.38;2.55;;;;;;;24.99;43.77;96824.28;4982337;28;20083;-70
2023/06/28 08:46:29;;;;;;;7.88;3.45;;;;;;;23.75;44.45;96834.72;4980007;28;20045;-71
2023/06/28 08:48:55;;;;;;;12.82;2.80;;;;;;;23.11;47.10;96832.00;4982959;28;20073;-71
2023/06/28 08:51:21;;;;;;;6.43;2.95;;;;;;;22.64;46.98;96825.00;4977919;28;20464;-70
2023/06/28 08:53:48;;;;;;;7.28;2.63;;;;;;;22.25;48.06;96828.91;4948930;28;20046;-70
2023/06/28 08:56:15;;;;;;;8.27;3.05;;;;;;;22.89;46.33;96826.28;4977405;28;20065;-71
2023/06/28 08:58:41;;;;;;;5.68;2.53;;;;;;;24.74;43.87;96830.84;4984245;28;20042;-71
2023/06/28 09:01:08;;;;;;;9.80;2.42;;;;;;;25.97;39.96;96829.59;4986428;28;20046;-71
2023/06/28 09:03:40;;;;;;;9.80;3.25;;;;;;;23.32;44.79;96826.94;4985891;28;20065;-70
2023/06/28 09:06:05;;;;;;;6.88;2.63;;;;;;;23.54;43.26;96836.22;4974455;28;20039;-69
2023/06/28 09:08:31;;;;;;;6.47;2.80;;;;;;;23.17;44.32;96832.22;4962538;28;20392;-72
2023/06/28 09:10:59;;;;;;;6.90;2.45;;;;;;;22.72;44.36;96828.38;4967741;28;20043;-70
2023/06/28 09:13:27;;;;;;;7.40;2.53;;;;;;;22.19;46.17;96822.31;4977124;28;20046;-71
2023/06/28 09:15:54;;;;;;;8.35;2.50;;;;;;;24.28;43.43;96819.34;4964805;28;20046;-70
2023/06/28 09:18:19;;;;;;;6.05;2.70;;;;;;;24.43;41.06;96825.94;4978298;28;20044;-71
2023/06/28 09:20:50;;;;;;;7.13;2.55;;;;;;;24.78;41.73;96821.06;4983482;28;20411;-72
2023/06/28 09:23:23;;;;;;;9.13;2.30;;;;;;;25.02;40.79;96817.75;4976811;28;20053;-71
2023/06/28 09:25:49;;;;;;;9.18;2.63;;;;;;;24.63;41.18;96822.06;4982670;28;20638;-72
2023/06/28 09:28:15;;;;;;;7.63;2.50;;;;;;;25.10;40.77;96819.03;4976679;28;20057;-69
2023/06/28 09:30:41;;;;;;;8.98;2.40;;;;;;;23.16;44.31;96806.31;4981729;28;20120;-72
2023/06/28 09:33:07;;;;;;;8.50;3.05;;;;;;;23.33;43.57;96806.94;4977358;28;20077;-70
2023/06/28 09:35:39;;;;;;;12.10;1.92;;;;;;;24.89;41.09;96805.88;4983280;28;20046;-70
2023/06/28 09:38:08;;;;;;;6.68;2.67;;;;;;;24.04;41.69;96809.34;4978093;28;20042;-69
2023/06/28 09:40:34;;;;;;;6.00;2.47;;;;;;;23.80;42.75;96814.56;4965587;28;20054;-70
2023/06/28 09:43:00;;;;;;;3.83;2.10;;;;;;;23.96;41.44;96810.84;4981688;28;20038;-70
2023/06/28 09:45:28;;;;;;;4.85;2.25;;;;;;;24.23;40.39;96806.69;4976874;28;20047;-69
2023/06/28 09:48:02;;;;;;;6.18;2.00;;;;;;;25.23;38.57;96810.53;4982335;28;20049;-70
2023/06/28 09:50:38;;;;;;;6.20;2.03;;;;;;;24.11;40.13;96810.34;4978853;28;20108;-70
2023/06/28 09:53:17;;;;;;;5.22;2.22;;;;;;;25.48;36.87;96798.31;4981367;28;20506;-68
2023/06/28 09:55:49;;;;;;;6.53;2.20;;;;;;;25.71;36.73;96802.56;4985839;28;20149;-70
2023/06/28 09:58:19;;;;;;;6.07;2.25;;;;;;;26.65;34.99;96801.28;4981536;28;20048;-69
2023/06/28 10:00:49;;;;;;;4.05;1.80;;;;;;;26.17;35.38;96801.03;4991211;28;20041;-70
2023/06/28 10:03:17;;;;;;;7.10;2.13;;;;;;;26.75;33.52;96800.03;4976844;28;20038;-71
2023/06/28 10:05:45;;;;;;;5.47;2.15;;;;;;;25.37;35.00;96797.97;5006109;28;20042;-69
2023/06/28 10:08:14;;;;;;;4.75;1.73;;;;;;;24.14;37.51;96801.81;4991639;28;20053;-69
2023/06/28 10:10:41;;;;;;;3.35;1.80;;;;;;;24.49;36.91;96798.94;5001336;28;20050;-70
2023/06/28 10:13:18;;;;;;;4.82;1.95;;;;;;;24.24;37.82;96799.88;4964095;28;20074;-70
2023/06/28 10:15:50;;;;;;;3.80;2.00;;;;;;;24.59;36.68;96794.19;4985652;28;20127;-72
2023/06/28 10:18:16;;;;;;;9.60;1.95;;;;;;;25.75;35.77;96794.78;4987742;28;20038;-70
2023/06/28 10:20:42;;;;;;;5.78;1.95;;;;;;;26.52;34.40;96790.22;4989166;28;20140;-70
2023/06/28 10:23:11;;;;;;;5.85;2.30;;;;;;;26.07;35.64;96801.06;4980930;28;20042;-69
2023/06/28 10:25:41;;;;;;;8.32;2.67;;;;;;;25.77;37.38;96799.91;4985138;28;20077;-69
2023/06/28 10:28:07;;;;;;;7.10;2.60;;;;;;;26.17;37.05;96801.03;4963464;28;20049;-69
2023/06/28 10:30:32;;;;;;;7.97;2.85;;;;;;;25.72;36.82;96803.34;4983420;28;20038;-70
2023/06/28 10:33:00;;;;;;;4.55;2.42;;;;;;;24.61;39.23;96802.91;4984829;28;20074;-70
2023/06/28 10:35:26;;;;;;;6.72;2.63;;;;;;;24.62;39.60;96810.09;4980559;28;20488;-70
2023/06/28 10:37:56;;;;;;;8.80;2.78;;;;;;;24.87;40.51;96805.56;4984709;28;20495;-70
2023/06/28 10:40:21;;;;;;;5.38;2.78;;;;;;;24.90;39.81;96804.63;4979688;28;20566;-70
2023/06/28 10:42:47;;;;;;;8.32;3.13;;;;;;;24.97;40.12;96801.53;4985396;28;20070;-70
2023/06/28 10:45:13;;;;;;;12.68;3.50;;;;;;;24.55;40.46;96804.75;4980184;28;20217;-70
2023/06/28 10:47:51;;;;;;;8.55;2.92;;;;;;;24.59;39.71;96808.19;4987501;28;20042;-70
2023/06/28 10:50:21;;;;;;;10.88;3.60;;;;;;;24.02;41.14;96797.84;4965929;28;20034;-70
2023/06/28 10:52:47;;;;;;;;;;;;;;;24.03;41.44;96798.63;4986832;28;20137;-70
2023/06/28 10:55:18;;;;;;;8.27;3.10;;;;;;;24.38;40.90;96793.75;4979718;28;19968;-70
2023/06/28 10:57:43;;;;;;;4.95;2.70;;;;;;;24.37;39.58;96799.81;4985143;28;20387;-69
2023/06/28 11:00:40;;;;;;;9.77;2.83;;;;;;;24.76;39.67;96792.75;4981574;28;20041;-70
2023/06/28 11:03:06;;;;;;;8.18;2.97;;;;;;;24.58;40.06;96796.22;4985515;28;20450;-71
2023/06/28 11:05:38;;;;;;;9.30;2.80;;;;;;;24.64;39.53;96792.84;5004285;28;20042;-69
2023/06/28 11:08:16;;;;;;;9.75;2.92;;;;;;;24.55;39.91;96797.13;5002720;28;20543;-69
2023/06/28 11:10:45;;;;;;;7.78;2.63;;;;;;;24.39;40.39;96800.91;5001426;28;20048;-69
2023/06/28 11:13:12;;;;;;;5.43;2.40;;;;;;;24.74;40.36;96797.22;4978863;28;20133;-69
2023/06/28 11:15:47;;;;;;;10.95;2.80;;;;;;;24.94;41.16;96794.84;4984230;28;20395;-69
2023/06/28 11:18:21;;;;;;;4.78;2.58;;;;;;;25.53;39.50;96792.09;4985243;28;20046;-69
2023/06/28 11:21:01;;;;;;;7.53;2.67;;;;;;;25.88;37.54;96802.25;4999869;28;20046;-68
2023/06/28 11:23:39;;;;;;;10.07;2.92;;;;;;;25.81;36.58;96797.72;4962309;28;20050;-69
2023/06/28 11:26:12;;;;;;;12.82;5.03;;;;;;;24.41;38.85;96797.66;4998235;28;20042;-68
2023/06/28 11:28:49;;;;;;;10.23;3.05;;;;;;;25.33;37.79;96795.31;4984489;28;20073;-69
2023/06/28 11:31:21;;;;;;;6.55;2.80;;;;;;;24.64;38.67;96802.00;4979612;28;20077;-69